Time;durP1;ratioP1;P1;durP2;ratioP2;P2;SDS_P1;SDS_P2;PMS_P1;PMS_P2;Temp;Humidity;BMP_temperature;BMP_pressure;BME280_temperature;BME280_humidity;BME280_pressure;Samples;Min_cycle;Max_cycle;Signal;HPM_P1;HPM_P2
2022/07/09 00:02:15;;;;;;;4.13;2.10;;;;;;;14.89;64.37;101579.06;1695069;84;21359;-89
2022/07/09 00:04:42;;;;;;;2.62;2.00;;;;;;;14.85;64.47;101577.40;1684826;84;20973;-89
2022/07/09 00:07:08;;;;;;;2.80;2.00;;;;;;;14.79;64.38;101578.37;1680862;84;20945;-89
2022/07/09 00:09:34;;;;;;;4.97;2.27;;;;;;;14.73;64.52;101571.11;1691207;84;20940;-89
2022/07/09 00:12:03;;;;;;;4.08;2.22;;;;;;;14.68;64.52;101568.59;1674922;84;20893;-88
2022/07/09 00:14:30;;;;;;;1.77;1.67;;;;;;;14.64;64.60;101572.57;1706124;82;20913;-88
2022/07/09 00:16:56;;;;;;;3.75;2.20;;;;;;;14.58;64.63;101572.23;1706633;82;20994;-88
2022/07/09 00:19:22;;;;;;;3.08;2.30;;;;;;;14.53;64.63;101569.73;1705817;82;20929;-88
2022/07/09 00:21:48;;;;;;;4.23;2.20;;;;;;;14.49;64.73;101565.47;1710993;82;20842;-88
2022/07/09 00:24:14;;;;;;;2.80;2.23;;;;;;;14.46;64.74;101569.42;1706509;84;21635;-88
2022/07/09 00:26:42;;;;;;;2.47;2.20;;;;;;;14.40;64.81;101569.94;1719546;82;20941;-87
2022/07/09 00:29:08;;;;;;;3.67;2.10;;;;;;;14.35;64.86;101560.05;1735662;82;20893;-87
2022/07/09 00:31:34;;;;;;;3.72;2.08;;;;;;;14.32;64.91;101557.05;1710886;82;20953;-88
2022/07/09 00:34:00;;;;;;;3.13;2.60;;;;;;;14.31;64.96;101553.17;1706087;82;21272;-88
2022/07/09 00:36:26;;;;;;;3.07;2.50;;;;;;;14.29;64.97;101547.99;1705686;84;20905;-87
2022/07/09 00:38:58;;;;;;;5.53;2.83;;;;;;;14.26;64.98;101549.34;1694297;83;21324;-87
2022/07/09 00:41:24;;;;;;;5.20;2.90;;;;;;;14.23;65.15;101545.48;1695824;83;20950;-88
2022/07/09 00:43:51;;;;;;;8.53;2.70;;;;;;;14.22;65.16;101545.93;1693107;84;20961;-88
2022/07/09 00:46:17;;;;;;;3.00;2.30;;;;;;;14.22;65.21;101543.77;1702894;83;20958;-88
2022/07/09 00:48:43;;;;;;;2.58;2.33;;;;;;;14.18;65.20;101544.70;1716499;82;25090;-88
2022/07/09 00:51:13;;;;;;;4.28;2.60;;;;;;;14.16;65.27;101540.83;1692932;83;21454;-88
2022/07/09 00:53:40;;;;;;;5.78;3.33;;;;;;;14.13;65.28;101535.67;1692749;83;21008;-88
2022/07/09 00:56:07;;;;;;;;;;;;;;;14.10;65.30;101530.52;1695562;83;20954;-88
2022/07/09 00:58:37;;;;;;;3.02;2.60;;;;;;;14.05;65.64;101537.53;1702248;83;20093;-88
2022/07/09 01:01:03;;;;;;;5.20;3.15;;;;;;;14.03;65.39;101535.88;1714647;83;20939;-88
2022/07/09 01:03:29;;;;;;;3.42;2.80;;;;;;;14.02;65.48;101535.45;1721479;83;20933;-89
2022/07/09 01:05:56;;;;;;;;;;;;;;;14.01;65.52;101537.63;1722955;83;20910;-89
2022/07/09 01:08:22;;;;;;;4.40;3.35;;;;;;;13.98;65.95;101533.78;1702836;83;20222;-89
2022/07/09 01:10:51;;;;;;;5.08;3.50;;;;;;;13.88;65.54;101533.05;1693639;83;20926;-88
2022/07/09 01:13:18;;;;;;;4.65;3.10;;;;;;;13.84;65.69;101533.55;1692953;83;20956;-88
2022/07/09 01:15:44;;;;;;;4.20;3.20;;;;;;;13.83;65.65;101534.42;1701909;83;26352;-88
2022/07/09 01:18:12;;;;;;;6.67;3.60;;;;;;;13.78;65.73;101527.13;1721901;83;20910;-88
2022/07/09 01:20:38;;;;;;;7.80;3.62;;;;;;;13.77;65.85;101526.72;1696590;83;22097;-88
2022/07/09 01:23:04;;;;;;;4.20;3.80;;;;;;;13.79;65.91;101526.69;1721974;83;20938;-88
2022/07/09 01:25:45;;;;;;;6.05;3.70;;;;;;;13.78;65.93;101526.27;1709869;83;20882;-88
2022/07/09 01:28:23;;;;;;;6.40;4.20;;;;;;;13.79;66.03;101526.25;1716242;83;20894;-87
2022/07/09 01:30:49;;;;;;;6.43;3.97;;;;;;;13.79;66.10;101525.39;1721934;83;20890;-87
2022/07/09 01:33:15;;;;;;;4.80;3.45;;;;;;;13.79;66.14;101520.19;1721775;83;20870;-87
2022/07/09 01:35:41;;;;;;;4.27;3.90;;;;;;;13.79;66.21;101521.05;1712682;83;20918;-87
2022/07/09 01:38:07;;;;;;;5.93;3.70;;;;;;;13.79;66.24;101513.25;1700344;82;21603;-87
2022/07/09 01:40:33;;;;;;;5.27;3.93;;;;;;;13.78;66.29;101512.84;1716544;83;20867;-87
2022/07/09 01:42:59;;;;;;;6.03;4.50;;;;;;;13.79;66.32;101518.89;1697578;83;20945;-87
2022/07/09 01:45:25;;;;;;;8.53;4.20;;;;;;;13.79;66.37;101520.19;1692962;83;20933;-87
2022/07/09 01:47:52;;;;;;;5.28;3.80;;;;;;;13.77;66.49;101518.91;1710224;83;20937;-87
2022/07/09 01:50:18;;;;;;;5.00;3.57;;;;;;;13.65;66.70;101491.80;1697932;83;20939;-87
2022/07/09 01:52:45;;;;;;;4.27;3.80;;;;;;;13.65;66.70;101491.80;1698462;83;21356;-87
2022/07/09 01:55:11;;;;;;;4.53;3.63;;;;;;;13.78;66.64;101512.84;1719510;83;20882;-87
2022/07/09 01:57:37;;;;;;;5.20;3.60;;;;;;;13.79;66.71;101509.36;1722060;83;21252;-87
2022/07/09 02:00:05;;;;;;;4.55;3.22;;;;;;;13.81;66.78;101510.19;1707507;83;21083;-88
2022/07/09 02:02:31;;;;;;;5.17;3.33;;;;;;;13.83;66.84;101503.67;1719644;83;20954;-88
2022/07/09 02:04:58;;;;;;;3.65;2.70;;;;;;;13.85;66.93;101507.11;1721892;82;20942;-88
2022/07/09 02:07:24;;;;;;;4.58;3.20;;;;;;;13.86;66.94;101496.68;1704414;82;21017;-88
2022/07/09 02:09:51;;;;;;;4.37;3.27;;;;;;;13.86;67.02;101507.08;1698592;83;20973;-88
2022/07/09 02:12:18;;;;;;;4.12;2.65;;;;;;;13.86;67.11;101492.78;1708238;83;20934;-87
2022/07/09 02:14:45;;;;;;;5.70;2.62;;;;;;;13.91;67.18;101495.31;1710262;82;21766;-88
2022/07/09 02:17:11;;;;;;;4.17;2.80;;;;;;;13.94;67.36;101495.27;1702546;83;21585;-88
2022/07/09 02:19:38;;;;;;;2.67;2.45;;;;;;;13.97;67.45;101488.72;1692926;84;20963;-87
2022/07/09 02:22:05;;;;;;;2.37;2.17;;;;;;;14.01;67.46;101484.33;1693021;83;27074;-88
2022/07/09 02:24:31;;;;;;;5.25;2.45;;;;;;;14.04;67.46;101482.50;1698659;83;20941;-88
2022/07/09 02:26:57;;;;;;;3.73;2.10;;;;;;;14.07;67.52;101477.69;1693125;83;20949;-87
2022/07/09 02:29:24;;;;;;;3.37;2.52;;;;;;;14.10;67.59;101477.64;1693028;84;21086;-88
2022/07/09 02:31:50;;;;;;;4.60;2.40;;;;;;;14.13;67.63;101471.09;1702942;83;20953;-88
2022/07/09 02:34:16;;;;;;;3.95;2.40;;;;;;;14.17;67.68;101476.66;1693150;83;21704;-88
2022/07/09 02:36:42;;;;;;;4.63;2.20;;;;;;;14.19;67.73;101468.38;1693152;84;21407;-88
2022/07/09 02:39:08;;;;;;;3.67;2.27;;;;;;;14.23;67.76;101465.70;1704374;82;21348;-88
2022/07/09 02:41:34;;;;;;;4.90;2.27;;;;;;;14.26;67.75;101466.09;1708094;83;21817;-88
2022/07/09 02:44:00;;;;;;;5.83;2.13;;;;;;;14.24;67.76;101466.56;1697946;82;20949;-88
2022/07/09 02:46:26;;;;;;;3.43;1.97;;;;;;;14.26;67.88;101464.79;1696191;83;20882;-88
2022/07/09 02:48:53;;;;;;;2.52;2.20;;;;;;;14.25;67.88;101460.47;1721446;82;21474;-89
2022/07/09 02:51:20;;;;;;;4.83;2.27;;;;;;;14.26;67.97;101456.98;1712103;83;20926;-90
2022/07/09 02:53:46;;;;;;;2.53;1.90;;;;;;;14.26;68.03;101459.59;1697074;83;21398;-90
2022/07/09 02:56:24;;;;;;;2.75;2.15;;;;;;;14.27;68.06;101464.35;1693045;83;21439;-90
2022/07/09 02:58:50;;;;;;;2.80;1.87;;;;;;;14.27;68.10;101465.65;1645585;87;21528;-90
2022/07/09 03:01:16;;;;;;;3.63;2.60;;;;;;;14.26;68.12;101476.50;1649309;85;21458;-89
2022/07/09 03:03:43;;;;;;;5.58;2.65;;;;;;;14.24;68.20;101483.03;1672293;85;26373;-89
2022/07/09 03:06:09;;;;;;;2.97;1.97;;;;;;;14.25;68.24;101478.24;1656388;85;21580;-89
2022/07/09 03:08:35;;;;;;;4.20;2.10;;;;;;;14.25;68.28;101476.94;1668797;85;21498;-88
2022/07/09 03:11:06;;;;;;;3.65;2.20;;;;;;;14.27;68.35;101476.91;1668412;85;21494;-87
2022/07/09 03:13:34;;;;;;;6.80;2.05;;;;;;;14.30;68.38;101474.27;1664789;85;21505;-88
2022/07/09 03:16:00;;;;;;;5.20;2.42;;;;;;;14.31;68.41;101475.98;1672314;85;20934;-88
2022/07/09 03:18:26;;;;;;;4.33;2.00;;;;;;;14.34;68.48;101468.56;1664903;85;21438;-88
2022/07/09 03:20:52;;;;;;;2.40;2.03;;;;;;;14.37;68.52;101471.11;1670967;85;21446;-88
2022/07/09 03:23:19;;;;;;;3.37;2.42;;;;;;;14.38;68.54;101465.02;1671606;85;25428;-88
2022/07/09 03:25:45;;;;;;;6.50;2.47;;;;;;;14.41;68.58;101468.46;1672604;85;21438;-88
2022/07/09 03:28:11;;;;;;;6.67;2.33;;;;;;;14.44;68.62;101465.80;1720779;83;22117;-88
2022/07/09 03:30:38;;;;;;;5.08;2.02;;;;;;;14.47;68.71;101460.55;1713268;83;21394;-89
2022/07/09 03:33:04;;;;;;;3.03;2.07;;;;;;;14.48;68.72;101464.86;1693037;84;21443;-88
2022/07/09 03:35:30;;;;;;;5.40;2.10;;;;;;;14.52;68.74;101468.27;1708293;83;21478;-89
2022/07/09 03:37:56;;;;;;;2.97;2.23;;;;;;;14.53;68.79;101464.77;1707712;82;20890;-88
2022/07/09 03:40:22;;;;;;;3.57;2.10;;;;;;;14.55;68.79;101465.61;1655030;85;21485;-88
2022/07/09 03:42:51;;;;;;;4.03;2.05;;;;;;;14.57;68.88;101463.36;1669627;84;21433;-88
2022/07/09 03:45:17;;;;;;;4.97;2.50;;;;;;;14.60;68.87;101462.88;1682791;84;21388;-88
2022/07/09 03:47:43;;;;;;;6.73;2.50;;;;;;;14.62;68.94;101455.91;1669329;85;21467;-88
2022/07/09 03:50:09;;;;;;;3.40;2.40;;;;;;;14.65;68.95;101457.15;1673994;84;21614;-88
2022/07/09 03:52:35;;;;;;;3.22;2.30;;;;;;;14.68;69.05;101460.99;1678423;84;21317;-87
2022/07/09 03:55:01;;;;;;;6.57;2.40;;;;;;;14.70;69.08;101463.98;1668297;84;20836;-87
2022/07/09 03:57:27;;;;;;;4.00;2.40;;;;;;;14.74;69.08;101463.48;1681636;84;20989;-87
2022/07/09 03:59:53;;;;;;;3.70;2.30;;;;;;;14.79;69.12;101461.64;1645392;85;21434;-88
2022/07/09 04:02:19;;;;;;;3.10;2.07;;;;;;;14.83;69.16;101459.39;1665491;85;20861;-88
2022/07/09 04:04:45;;;;;;;4.97;2.30;;;;;;;14.86;69.21;101456.73;1651839;85;21948;-88
2022/07/09 04:07:11;;;;;;;3.57;2.20;;;;;;;14.89;69.20;101461.88;1711619;83;20894;-88
2022/07/09 04:09:39;;;;;;;3.08;2.10;;;;;;;14.92;69.25;101452.70;1720889;83;21525;-88
2022/07/09 04:12:06;;;;;;;4.77;2.17;;;;;;;14.93;69.24;101453.11;1704184;83;21418;-88
2022/07/09 04:14:32;;;;;;;6.20;2.85;;;;;;;14.97;69.30;101456.52;1710936;83;21289;-88
2022/07/09 04:17:01;;;;;;;4.23;2.40;;;;;;;14.99;69.32;101458.20;1713500;83;20952;-89
2022/07/09 04:19:26;;;;;;;5.08;2.08;;;;;;;15.03;69.34;101457.24;1664250;84;21556;-88
2022/07/09 04:21:54;;;;;;;4.80;1.95;;;;;;;15.08;69.37;101457.97;1680520;84;21084;-89
2022/07/09 04:24:20;;;;;;;4.63;2.23;;;;;;;15.11;69.43;101451.39;1669430;84;20925;-88
2022/07/09 04:26:46;;;;;;;5.97;2.60;;;;;;;15.13;69.44;101450.06;1681473;84;20941;-88
2022/07/09 04:29:13;;;;;;;5.92;2.55;;;;;;;15.16;69.48;101449.55;1671959;84;21092;-88
2022/07/09 04:31:42;;;;;;;5.78;3.25;;;;;;;15.22;69.50;101457.68;1673080;84;21531;-87
2022/07/09 04:34:08;;;;;;;3.90;1.92;;;;;;;15.24;69.51;101454.59;1680245;84;20975;-88
2022/07/09 04:36:34;;;;;;;5.25;2.35;;;;;;;15.29;69.59;101454.50;1692910;84;21059;-88
2022/07/09 04:39:01;;;;;;;5.28;2.58;;;;;;;15.33;69.57;101447.02;1670146;84;21057;-87
2022/07/09 04:41:28;;;;;;;3.47;2.23;;;;;;;15.37;69.57;101445.62;1682622;84;20994;-87
2022/07/09 04:43:55;;;;;;;4.40;2.33;;;;;;;15.41;69.63;101444.66;1672579;84;21023;-87
2022/07/09 04:46:23;;;;;;;5.83;2.08;;;;;;;15.47;69.65;101452.79;1629328;85;21504;-88
2022/07/09 04:48:49;;;;;;;9.03;2.50;;;;;;;15.50;69.62;101447.50;1658264;84;21054;-88
2022/07/09 04:51:15;;;;;;;4.27;2.00;;;;;;;15.50;69.62;101452.72;1653618;84;21116;-88
2022/07/09 04:53:47;;;;;;;5.97;2.05;;;;;;;15.51;69.63;101449.22;1677436;84;21071;-88
2022/07/09 04:56:14;;;;;;;4.90;2.12;;;;;;;15.52;69.70;101444.41;1677204;84;21533;-88
2022/07/09 04:58:51;;;;;;;9.43;2.12;;;;;;;15.54;69.70;101446.09;1678616;83;21069;-87
2022/07/09 05:01:08;;;;;;;7.03;2.77;;;;;;;15.57;69.74;101443.04;1687049;84;21000;-87
2022/07/09 05:03:34;;;;;;;8.23;2.35;;;;;;;15.65;69.81;101444.99;1674795;84;20981;-87
2022/07/09 05:06:01;;;;;;;6.62;2.35;;;;;;;15.76;69.85;101444.29;1683108;84;21035;-88
2022/07/09 05:08:26;;;;;;;4.37;2.05;;;;;;;15.89;69.88;101447.88;1644563;85;21659;-87
2022/07/09 05:10:53;;;;;;;8.50;2.37;;;;;;;16.10;69.88;101448.23;1687511;84;21057;-88
2022/07/09 05:13:19;;;;;;;7.65;2.25;;;;;;;16.38;69.98;101449.65;1692489;84;21022;-87
2022/07/09 05:15:45;;;;;;;10.17;3.50;;;;;;;16.74;69.98;101451.71;1667357;84;21500;-87
2022/07/09 05:18:12;;;;;;;7.83;2.00;;;;;;;17.13;69.85;101444.03;1686161;84;21018;-87
2022/07/09 05:20:42;;;;;;;6.67;1.75;;;;;;;17.47;69.74;101445.59;1683221;84;21055;-88
2022/07/09 05:23:08;;;;;;;6.40;1.73;;;;;;;17.92;69.77;101439.80;1662626;84;21051;-88
2022/07/09 05:25:34;;;;;;;4.40;2.10;;;;;;;18.26;69.43;101449.50;1724398;83;21108;-88
2022/07/09 05:28:00;;;;;;;4.70;1.97;;;;;;;18.27;69.00;101443.81;1708988;83;20975;-87
2022/07/09 05:30:26;;;;;;;4.15;1.80;;;;;;;18.23;68.99;101449.61;1717470;82;21049;-87
2022/07/09 05:32:55;;;;;;;4.42;2.10;;;;;;;18.13;68.95;101456.95;1704832;83;21029;-88
2022/07/09 05:35:21;;;;;;;3.80;1.67;;;;;;;18.09;68.75;101446.17;1645916;85;635803;-88
2022/07/09 05:37:47;;;;;;;7.53;2.13;;;;;;;18.10;69.04;101444.41;1660946;85;20893;-88
2022/07/09 05:40:14;;;;;;;7.93;2.03;;;;;;;18.11;68.90;101445.67;1671109;84;20973;-88
2022/07/09 05:42:40;;;;;;;7.33;1.95;;;;;;;18.05;68.81;101453.73;1665570;85;21384;-88
2022/07/09 05:45:07;;;;;;;5.57;2.30;;;;;;;17.91;68.75;101449.41;1668018;85;20926;-88
2022/07/09 05:47:34;;;;;;;5.78;2.10;;;;;;;17.88;68.82;101442.11;1670307;84;21398;-89
2022/07/09 05:50:00;;;;;;;5.12;1.70;;;;;;;17.81;68.63;101444.92;1650988;85;21433;-88
2022/07/09 05:52:26;;;;;;;7.63;1.70;;;;;;;17.73;68.71;101440.84;1672433;85;20933;-88
2022/07/09 05:54:52;;;;;;;4.40;1.87;;;;;;;17.70;68.69;101436.57;1662805;85;21196;-89
2022/07/09 05:57:19;;;;;;;5.95;1.80;;;;;;;17.84;69.06;101435.67;1670306;85;20925;-87
2022/07/09 05:59:46;;;;;;;8.90;2.03;;;;;;;18.07;68.75;101428.36;1670552;85;20962;-87
2022/07/09 06:02:12;;;;;;;10.00;1.83;;;;;;;18.25;68.72;101432.53;1661030;85;20933;-87
2022/07/09 06:04:38;;;;;;;3.87;2.23;;;;;;;18.47;68.70;101429.11;1658001;85;21100;-87
2022/07/09 06:07:05;;;;;;;5.90;1.80;;;;;;;18.83;68.69;101426.07;1658721;85;21210;-87
2022/07/09 06:09:34;;;;;;;4.00;1.60;;;;;;;19.36;68.67;101424.45;1671389;85;21096;-86
2022/07/09 06:12:01;;;;;;;7.43;2.33;;;;;;;19.71;67.97;101423.92;1666652;85;21071;-86
2022/07/09 06:14:27;;;;;;;7.57;1.90;;;;;;;20.19;68.13;101432.41;1677497;85;21537;-86
2022/07/09 06:16:55;;;;;;;;;;;;;;;20.58;67.64;101435.08;1663273;85;21813;-85
2022/07/09 06:19:22;;;;;;;5.08;1.65;;;;;;;20.60;66.53;101422.73;1661636;85;20195;-85
2022/07/09 06:21:48;;;;;;;8.40;2.05;;;;;;;20.52;67.22;101416.95;1701125;83;21352;-85
2022/07/09 06:24:14;;;;;;;5.47;1.50;;;;;;;20.43;67.03;101428.73;1718596;83;21317;-85
2022/07/09 06:26:40;;;;;;;3.77;1.60;;;;;;;20.43;67.24;101422.16;1665872;85;21076;-86
2022/07/09 06:29:09;;;;;;;6.28;1.85;;;;;;;20.53;67.08;101419.52;1671478;85;21064;-86
2022/07/09 06:31:35;;;;;;;5.62;1.85;;;;;;;20.63;66.94;101416.87;1671377;85;21147;-87
2022/07/09 06:34:02;;;;;;;6.90;1.63;;;;;;;20.71;66.94;101414.75;1671160;85;20877;-87
2022/07/09 06:36:28;;;;;;;5.53;1.92;;;;;;;20.93;66.62;101410.66;1676372;85;21065;-88
2022/07/09 06:41:39;;;;;;;4.58;1.12;;;;;;;20.90;66.07;101416.52;1695519;83;21116;-86
2022/07/09 06:44:05;;;;;;;6.80;1.50;;;;;;;20.86;65.99;101412.31;1705901;83;21149;-86
2022/07/09 06:46:31;;;;;;;3.10;1.13;;;;;;;20.81;65.67;101416.47;1705667;83;21001;-86
2022/07/09 06:48:57;;;;;;;2.70;1.30;;;;;;;20.95;65.87;101411.44;1683869;83;21070;-86
2022/07/09 06:51:23;;;;;;;6.55;1.65;;;;;;;21.06;65.67;101406.53;1676776;83;21141;-86
2022/07/09 06:53:50;;;;;;;6.53;1.40;;;;;;;21.07;65.17;101400.34;1703155;82;21079;-86
2022/07/09 06:56:16;;;;;;;4.20;1.40;;;;;;;21.04;65.30;101405.75;1694766;83;21063;-87
2022/07/09 06:58:42;;;;;;;9.33;1.40;;;;;;;21.03;65.08;101403.19;1687024;83;20869;-86
2022/07/09 07:01:08;;;;;;;4.90;1.35;;;;;;;21.36;65.41;101398.11;1671225;83;21110;-86
2022/07/09 07:03:37;;;;;;;4.10;1.62;;;;;;;21.84;64.33;101390.02;1682413;83;21080;-87
2022/07/09 07:06:03;;;;;;;5.30;1.70;;;;;;;22.12;64.23;101391.66;1659965;85;20996;-87
2022/07/09 07:08:29;;;;;;;6.47;1.60;;;;;;;22.48;64.37;101390.17;1706479;83;21029;-87
2022/07/09 07:10:55;;;;;;;4.10;2.03;;;;;;;22.65;63.61;101399.35;1709490;83;21067;-86
2022/07/09 07:13:21;;;;;;;5.23;1.40;;;;;;;22.83;63.85;101393.58;1700886;83;21074;-87
2022/07/09 07:15:49;;;;;;;7.00;1.30;;;;;;;23.12;63.54;101398.55;1667193;85;20897;-87
2022/07/09 07:18:18;;;;;;;3.90;1.40;;;;;;;23.06;62.91;101403.69;1678920;85;21044;-87
2022/07/09 07:20:45;;;;;;;3.45;1.47;;;;;;;22.88;62.92;101399.42;1692736;83;21114;-87
2022/07/09 07:23:12;;;;;;;6.67;1.40;;;;;;;22.78;62.42;101391.20;1667874;85;21087;-87
2022/07/09 07:25:38;;;;;;;5.55;1.50;;;;;;;22.62;61.95;101395.56;1709841;83;21091;-87
2022/07/09 07:28:05;;;;;;;3.30;1.10;;;;;;;22.47;62.15;101402.97;1709824;83;21070;-87
2022/07/09 07:30:32;;;;;;;3.92;1.40;;;;;;;22.37;61.98;101406.55;1664298;85;21055;-87
2022/07/09 07:33:10;;;;;;;6.85;1.70;;;;;;;22.20;61.84;101408.39;1694792;83;21120;-87
2022/07/09 07:35:36;;;;;;;6.47;1.73;;;;;;;21.97;61.68;101397.68;1669486;85;21087;-87
2022/07/09 07:38:03;;;;;;;4.47;1.70;;;;;;;22.00;61.38;101401.47;1684363;83;21138;-87
2022/07/09 07:40:29;;;;;;;3.47;1.50;;;;;;;21.76;60.61;101399.17;1689205;83;21072;-87
2022/07/09 07:42:55;;;;;;;5.23;1.90;;;;;;;21.53;60.83;101400.77;1659212;85;21463;-87
2022/07/09 07:45:21;;;;;;;3.95;1.27;;;;;;;21.51;60.79;101405.27;1716794;83;21088;-87
2022/07/09 07:47:47;;;;;;;5.13;1.63;;;;;;;21.48;60.73;101401.00;1704832;83;20910;-87
2022/07/09 07:50:13;;;;;;;18.40;2.83;;;;;;;21.53;60.74;101403.41;1655748;85;21085;-87
2022/07/09 07:52:39;;;;;;;5.83;1.70;;;;;;;21.51;60.33;101401.31;1665119;85;21136;-87
2022/07/09 07:55:06;;;;;;;4.60;1.30;;;;;;;21.76;60.70;101406.22;1642183;86;21375;-88
2022/07/09 07:57:32;;;;;;;3.60;1.30;;;;;;;22.09;60.30;101408.94;1706382;83;20938;-87
2022/07/09 07:59:58;;;;;;;7.77;1.60;;;;;;;22.16;59.44;101407.69;1704508;83;21529;-87
2022/07/09 08:02:24;;;;;;;4.17;1.67;;;;;;;21.99;59.39;101412.47;1708113;83;21311;-87
2022/07/09 08:04:50;;;;;;;5.35;1.70;;;;;;;21.83;59.45;101419.47;1697081;82;21312;-87
2022/07/09 08:07:16;;;;;;;4.60;1.80;;;;;;;21.80;59.15;101407.31;1659212;85;21100;-87
2022/07/09 08:09:42;;;;;;;4.50;1.32;;;;;;;21.73;59.28;101405.91;1667333;85;21128;-87
2022/07/09 08:12:09;;;;;;;7.43;1.50;;;;;;;21.76;59.10;101407.08;1717505;83;20937;-87
2022/07/09 08:14:35;;;;;;;;;;;;;;;21.64;58.91;101407.68;1714357;82;21416;-87
2022/07/09 08:17:01;;;;;;;3.35;1.37;;;;;;;21.49;57.57;101403.16;1705113;83;20227;-87
2022/07/09 08:19:28;;;;;;;6.10;2.43;;;;;;;21.36;58.73;101406.00;1711671;83;21053;-87
2022/07/09 08:21:54;;;;;;;5.62;2.00;;;;;;;21.30;58.77;101402.38;1708923;82;21363;-87
2022/07/09 08:24:20;;;;;;;2.90;1.77;;;;;;;;;;1695591;83;21128;-87
2022/07/09 08:26:46;;;;;;;6.63;1.60;;;;;;;22.15;58.56;101403.36;1704221;83;21455;-87
2022/07/09 08:29:12;;;;;;;8.03;2.00;;;;;;;22.34;58.16;101404.11;1705734;83;21049;-87
2022/07/09 08:31:38;;;;;;;4.10;1.63;;;;;;;22.21;58.10;101404.82;1720097;83;20890;-87
2022/07/09 08:34:04;;;;;;;4.78;1.52;;;;;;;22.05;57.75;101409.56;1706774;83;21077;-87
2022/07/09 08:36:30;;;;;;;4.42;1.47;;;;;;;21.83;57.29;101412.03;1718976;83;21105;-87
2022/07/09 08:38:56;;;;;;;3.97;1.50;;;;;;;21.68;57.63;101405.28;1709694;83;21122;-87
2022/07/09 08:41:24;;;;;;;3.02;1.35;;;;;;;21.70;57.36;101394.22;1725414;82;21772;-87
2022/07/09 08:43:51;;;;;;;3.00;1.20;;;;;;;21.53;57.03;101392.87;1725558;82;20974;-87
2022/07/09 08:46:18;;;;;;;7.10;1.50;;;;;;;21.40;57.21;101389.99;1730124;82;21398;-87
2022/07/09 08:48:45;;;;;;;4.30;1.37;;;;;;;21.33;56.86;101387.27;1692128;84;21291;-87
2022/07/09 08:51:15;;;;;;;3.72;1.50;;;;;;;21.26;56.88;101396.41;1699788;84;20945;-87
2022/07/09 08:53:43;;;;;;;7.00;1.55;;;;;;;21.18;56.62;101386.69;1693466;84;20968;-87
2022/07/09 08:56:10;;;;;;;3.72;1.57;;;;;;;21.07;56.06;101399.03;1691924;82;20963;-87
2022/07/09 08:58:41;;;;;;;3.75;1.25;;;;;;;20.92;56.33;101399.74;1665687;84;21551;-87
2022/07/09 09:01:08;;;;;;;4.05;1.37;;;;;;;20.93;56.24;101404.08;1695063;84;21553;-87
2022/07/09 09:03:35;;;;;;;5.03;1.42;;;;;;;20.86;56.13;101401.80;1733429;82;21056;-87
2022/07/09 09:06:04;;;;;;;4.58;1.50;;;;;;;20.83;56.13;101390.97;1705072;82;21104;-87
2022/07/09 09:08:37;;;;;;;4.58;1.60;;;;;;;20.84;56.04;101396.61;1701603;81;21093;-87
2022/07/09 09:11:10;;;;;;;3.37;1.90;;;;;;;20.83;55.93;101387.02;1700687;82;21472;-87
2022/07/09 09:13:47;;;;;;;2.30;1.30;;;;;;;20.75;55.79;101384.78;1730881;82;20973;-87
2022/07/09 09:16:15;;;;;;;4.83;1.50;;;;;;;20.70;55.80;101392.02;1671804;84;21040;-87
2022/07/09 09:18:48;;;;;;;4.05;1.50;;;;;;;20.62;55.54;101399.40;1669433;84;21387;-87
2022/07/09 09:21:17;;;;;;;3.98;1.60;;;;;;;20.60;55.60;101395.13;1658088;84;20932;-87
2022/07/09 09:23:49;;;;;;;4.70;1.62;;;;;;;20.59;55.59;101386.40;1674304;85;21007;-87
2022/07/09 09:26:20;;;;;;;3.50;1.50;;;;;;;20.62;55.53;101393.29;1688692;84;20965;-87
2022/07/09 09:28:58;;;;;;;5.37;1.70;;;;;;;20.60;55.33;101394.67;1687655;84;20889;-87
2022/07/09 09:31:33;;;;;;;3.62;1.57;;;;;;;20.62;55.31;101389.34;1697172;84;20968;-87
2022/07/09 09:34:10;;;;;;;3.72;1.70;;;;;;;20.69;55.40;101376.32;1696806;84;20964;-87
2022/07/09 09:36:42;;;;;;;2.92;1.25;;;;;;;20.81;55.24;101373.09;1693759;84;20924;-87
2022/07/09 09:39:16;;;;;;;4.58;1.55;;;;;;;20.89;55.22;101371.42;1669243;85;21394;-87
2022/07/09 09:41:49;;;;;;;4.10;1.77;;;;;;;21.02;55.28;101376.50;1684542;84;20926;-87
2022/07/09 09:44:29;;;;;;;7.40;1.85;;;;;;;21.11;55.04;101373.44;1657625;85;20953;-87
2022/07/09 09:46:58;;;;;;;5.10;1.40;;;;;;;21.16;54.98;101371.44;1651489;85;20898;-87
2022/07/09 09:49:25;;;;;;;3.05;1.40;;;;;;;21.20;54.87;101375.63;1655469;85;20918;-87
2022/07/09 09:52:07;;;;;;;4.58;1.32;;;;;;;21.23;54.70;101372.88;1668018;85;21009;-87
2022/07/09 09:54:36;;;;;;;5.70;1.62;;;;;;;21.27;54.63;101365.23;1658654;85;20994;-87
2022/07/09 09:57:13;;;;;;;3.08;1.15;;;;;;;21.38;54.60;101370.80;1668695;85;20998;-87
2022/07/09 09:59:41;;;;;;;2.52;1.17;;;;;;;21.45;54.60;101372.20;1703063;83;21072;-87
2022/07/09 10:02:09;;;;;;;4.20;1.60;;;;;;;21.51;54.43;101368.88;1714180;83;20902;-87
2022/07/09 10:04:44;;;;;;;6.50;1.47;;;;;;;21.55;54.26;101366.02;1707399;82;20913;-87
2022/07/09 10:07:17;;;;;;;4.20;1.40;;;;;;;21.63;54.20;101363.01;1708056;83;20921;-87
2022/07/09 10:09:59;;;;;;;4.87;1.30;;;;;;;21.59;54.05;101374.16;1714953;83;20902;-87
2022/07/09 10:12:37;;;;;;;5.17;1.40;;;;;;;21.47;54.02;101373.44;1700437;83;20950;-87
2022/07/09 10:15:26;;;;;;;3.95;1.20;;;;;;;21.33;53.90;101370.63;1697354;83;20917;-88
2022/07/09 10:17:53;;;;;;;4.33;1.22;;;;;;;21.22;53.88;101375.13;1702902;83;20949;-87
2022/07/09 10:20:33;;;;;;;7.55;1.70;;;;;;;21.10;53.76;101371.27;1698130;83;20910;-88
2022/07/09 10:23:22;;;;;;;5.42;1.47;;;;;;;21.03;53.78;101374.27;1705315;83;20870;-88
2022/07/09 10:25:52;;;;;;;3.40;1.30;;;;;;;20.88;53.61;101374.52;1709033;83;20937;-88
2022/07/09 10:28:20;;;;;;;4.33;1.40;;;;;;;20.81;53.66;101368.69;1700646;82;20946;-87
2022/07/09 10:30:47;;;;;;;5.58;1.82;;;;;;;20.79;53.63;101373.20;1659932;85;20942;-87
2022/07/09 10:33:23;;;;;;;4.05;2.30;;;;;;;20.78;53.47;101376.75;1662310;85;21005;-88
2022/07/09 10:35:51;;;;;;;6.08;1.50;;;;;;;20.79;53.50;101381.55;1632305;85;20983;-87
2022/07/09 10:38:22;;;;;;;2.02;1.17;;;;;;;20.80;53.42;101374.88;1672014;85;20974;-87
2022/07/09 10:41:00;;;;;;;2.42;1.35;;;;;;;20.83;53.30;101371.25;1660942;84;20966;-88
2022/07/09 10:43:46;;;;;;;5.10;1.75;;;;;;;20.81;53.37;101364.75;1662286;85;20910;-87
2022/07/09 10:46:14;;;;;;;3.58;1.40;;;;;;;20.82;53.20;101360.34;1637545;85;20982;-87
2022/07/09 10:48:47;;;;;;;3.35;1.42;;;;;;;20.89;53.26;101357.82;1673917;85;20898;-88
2022/07/09 10:51:22;;;;;;;2.75;1.10;;;;;;;20.98;53.23;101349.50;1665769;85;20906;-88
2022/07/09 10:53:56;;;;;;;5.20;1.45;;;;;;;21.06;53.13;101349.98;1655170;85;20938;-88
2022/07/09 10:56:24;;;;;;;4.70;1.17;;;;;;;21.18;53.10;101348.55;1673060;85;20883;-87
2022/07/09 10:58:50;;;;;;;2.52;1.30;;;;;;;21.29;52.98;101340.17;1665940;85;20934;-87
2022/07/09 11:01:21;;;;;;;2.15;1.12;;;;;;;21.41;52.94;101343.48;1677393;85;20938;-87
2022/07/09 11:03:52;;;;;;;3.60;1.10;;;;;;;21.52;52.88;101341.17;1662687;85;20933;-87
2022/07/09 11:06:20;;;;;;;2.40;0.93;;;;;;;21.61;52.88;101339.40;1667982;85;20974;-87
2022/07/09 11:08:48;;;;;;;4.10;0.90;;;;;;;21.68;52.27;101350.00;1673360;84;20969;-88
2022/07/09 11:11:22;;;;;;;2.92;1.20;;;;;;;21.67;52.71;101336.92;1669075;85;21044;-87
2022/07/09 11:13:54;;;;;;;1.62;0.90;;;;;;;21.70;52.56;101341.56;1668745;85;20977;-87
2022/07/09 11:16:24;;;;;;;2.33;1.40;;;;;;;21.81;52.74;101333.13;1678088;84;20950;-88
2022/07/09 11:18:53;;;;;;;1.07;0.60;;;;;;;21.91;52.63;101333.00;1604207;85;5001395;-87
2022/07/09 11:21:24;;;;;;;2.37;0.90;;;;;;;21.94;52.58;101331.53;1670776;85;21057;-87
2022/07/09 11:23:50;;;;;;;2.83;1.22;;;;;;;21.98;52.52;101329.13;1664163;85;21083;-87
2022/07/09 11:26:22;;;;;;;2.47;0.90;;;;;;;21.99;52.31;101328.20;1664245;85;21580;-87
2022/07/09 11:28:50;;;;;;;2.72;1.10;;;;;;;21.99;52.43;101329.98;1653042;86;21100;-87
2022/07/09 11:31:17;;;;;;;1.60;0.98;;;;;;;22.04;52.41;101332.79;1652065;86;20960;-88
2022/07/09 11:36:39;;;;;;;3.25;1.37;;;;;;;22.03;52.05;101324.50;1685251;84;21026;-87